GCXOGCLA

Guest
Details From GCXO - Tenerife Norte - Los Rodeos
To GCLA - La Palma
Flight Number -
Tags decoded
Created
Modified
Stats Distance 79 nm / 147 km
Max Altitude 0 ft / 0 m
Waypoints 5
Social Downloads 15
Likes 0
Share VATSIM

Download

Looking for another format? Having issues loading an existing format? Contact us
Advertisement - Login to hide

Notes

Requested: GCXO TESEL ARACO BX GCLA

Route

GCXO TESEL ARACO BX GCLA

ID Type Via Altitude Latitude Longitude Leg Dist Tot Dist Heading (true) Name
O GCXO APT - 0 ft / 0 m 28.48266˚ -16.34154˚ - 0 nm - Tenerife Norte - Los Rodeos
TESEL FIX - 0 ft / 0 m 28.48829˚ -16.83325˚ 25 nm 25 nm 271° / 271° -
ARACO FIX - 0 ft / 0 m 28.43252˚ -17.45233˚ 32 nm 58 nm 264° / 264° -
BX NDB - 0 ft / 0 m 28.60169˚ -17.75684˚ 19 nm 77 nm 302° / 302° LA PALMA NDB
O GCLA APT - 0 ft / 0 m 28.62648˚ -17.75561˚ 1 nm 79 nm 2° / 2° La Palma

Altitude Profile

Advertisement - Login to hide

GCXO

Details ICAO GCXO (TFN)
Name Tenerife Norte - Los Rodeos
Region Canary Islands
Timezone Atlantic/Canary (UTC+0.0)
Stats Elevation 2,076 ft / 633 m (AMSL)
Location 28.482656° -16.341541°
Runways 1
Magnetic Variation 5.003° W

METAR

GCXO 130900Z 01007KT 320V050 9999 FEW015 BKN025 13/10 Q1025 NOSIG

Decode

TAF

TAF GCXO 130800Z 1309/1409 34015KT 9999 BKN020 TX16/1314Z TN11/1406Z BECMG 1310/1312 04015KT PROB40 TEMPO 1309/1318 4000 DZRA BCFG FEW002 BKN007

Decode

Departure Runways

ID Width Length Bearing (true) Bearing (mag) Surface Threshold Offset Overrun Length
12 148 ft / 45 m 11,165 ft / 3,403 m 110.67° 115.67° Asphalt 0 ft / 0 m 197 ft / 60 m
30 148 ft / 45 m 11,165 ft / 3,403 m 290.69° 295.69° Asphalt 0 ft / 0 m 197 ft / 60 m

GCLA

Details ICAO GCLA (SPC)
Name La Palma
Region Canary Islands
Timezone Atlantic/Canary (UTC+0.0)
Stats Elevation 107 ft / 33 m (AMSL)
Location 28.626480° -17.755613°
Runways 1
Magnetic Variation 5.522° W

METAR

GCLA 130900Z 33014KT 9999 FEW035 SCT060 18/13 Q1025

Decode

TAF

TAF GCLA 130800Z 1309/1409 02015KT 9999 SCT030 TX20/1314Z TN17/1406Z TEMPO 1309/1321 02020G30KT PROB40 TEMPO 1309/1320 4000 RA

Decode

Destination Runways

ID Width Length Bearing (true) Bearing (mag) Surface Threshold Offset Overrun Length
01 148 ft / 45 m 7,240 ft / 2,207 m 359.02° 4.54° Asphalt 0 ft / 0 m 279 ft / 85 m
19 148 ft / 45 m 7,240 ft / 2,207 m 179.02° 184.54° Asphalt 0 ft / 0 m 236 ft / 72 m

Popular Alternatives